sensor_id;sensor_type;location;lat;lon;timestamp;P1;durP1;ratioP1;P2;durP2;ratioP2
18499;SDS011;9379;52.134;11.576;2024-03-25T00:00:21;2.20;;;2.10;;
18499;SDS011;9379;52.134;11.576;2024-03-25T00:02:50;2.35;;;2.15;;
18499;SDS011;9379;52.134;11.576;2024-03-25T00:05:16;2.72;;;2.63;;
18499;SDS011;9379;52.134;11.576;2024-03-25T00:07:47;3.08;;;2.78;;
18499;SDS011;9379;52.134;11.576;2024-03-25T00:10:13;2.47;;;2.30;;
18499;SDS011;9379;52.134;11.576;2024-03-25T00:12:40;2.80;;;2.70;;
18499;SDS011;9379;52.134;11.576;2024-03-25T00:15:08;2.92;;;2.72;;
18499;SDS011;9379;52.134;11.576;2024-03-25T00:17:35;4.95;;;2.78;;
18499;SDS011;9379;52.134;11.576;2024-03-25T00:20:01;3.45;;;3.25;;
18499;SDS011;9379;52.134;11.576;2024-03-25T00:22:31;2.63;;;2.53;;
18499;SDS011;9379;52.134;11.576;2024-03-25T00:24:57;3.40;;;2.35;;
18499;SDS011;9379;52.134;11.576;2024-03-25T00:27:23;2.53;;;2.33;;
18499;SDS011;9379;52.134;11.576;2024-03-25T00:29:49;2.28;;;2.17;;
18499;SDS011;9379;52.134;11.576;2024-03-25T00:32:17;3.30;;;2.47;;
18499;SDS011;9379;52.134;11.576;2024-03-25T00:34:43;2.03;;;1.92;;
18499;SDS011;9379;52.134;11.576;2024-03-25T00:37:15;2.30;;;2.20;;
18499;SDS011;9379;52.134;11.576;2024-03-25T00:39:41;3.70;;;3.10;;
18499;SDS011;9379;52.134;11.576;2024-03-25T00:42:08;2.88;;;2.70;;
18499;SDS011;9379;52.134;11.576;2024-03-25T00:44:34;2.40;;;2.20;;
18499;SDS011;9379;52.134;11.576;2024-03-25T00:47:01;3.03;;;2.83;;
18499;SDS011;9379;52.134;11.576;2024-03-25T00:49:28;2.70;;;2.55;;
18499;SDS011;9379;52.134;11.576;2024-03-25T00:51:55;2.80;;;2.60;;
18499;SDS011;9379;52.134;11.576;2024-03-25T00:54:21;2.30;;;2.20;;
18499;SDS011;9379;52.134;11.576;2024-03-25T00:56:49;1.70;;;1.70;;
18499;SDS011;9379;52.134;11.576;2024-03-25T00:59:16;1.90;;;1.80;;
18499;SDS011;9379;52.134;11.576;2024-03-25T01:01:43;2.40;;;2.30;;
18499;SDS011;9379;52.134;11.576;2024-03-25T01:04:09;2.08;;;1.98;;
18499;SDS011;9379;52.134;11.576;2024-03-25T01:06:37;2.97;;;2.05;;
18499;SDS011;9379;52.134;11.576;2024-03-25T01:09:03;2.30;;;2.20;;
18499;SDS011;9379;52.134;11.576;2024-03-25T01:11:31;2.13;;;2.03;;
18499;SDS011;9379;52.134;11.576;2024-03-25T01:13:58;2.40;;;2.30;;
18499;SDS011;9379;52.134;11.576;2024-03-25T01:16:25;2.20;;;2.10;;
18499;SDS011;9379;52.134;11.576;2024-03-25T01:18:51;2.28;;;2.13;;
18499;SDS011;9379;52.134;11.576;2024-03-25T01:21:17;2.25;;;1.92;;
18499;SDS011;9379;52.134;11.576;2024-03-25T01:23:45;2.40;;;2.20;;
18499;SDS011;9379;52.134;11.576;2024-03-25T01:26:12;1.90;;;1.80;;
18499;SDS011;9379;52.134;11.576;2024-03-25T01:28:38;2.75;;;2.40;;
18499;SDS011;9379;52.134;11.576;2024-03-25T01:31:05;2.78;;;2.58;;
18499;SDS011;9379;52.134;11.576;2024-03-25T01:33:31;2.40;;;2.30;;
18499;SDS011;9379;52.134;11.576;2024-03-25T01:35:58;3.15;;;2.42;;
18499;SDS011;9379;52.134;11.576;2024-03-25T01:38:23;2.90;;;2.45;;
18499;SDS011;9379;52.134;11.576;2024-03-25T01:40:52;5.18;;;2.78;;
18499;SDS011;9379;52.134;11.576;2024-03-25T01:43:17;2.17;;;2.08;;
18499;SDS011;9379;52.134;11.576;2024-03-25T01:45:44;3.78;;;3.05;;
18499;SDS011;9379;52.134;11.576;2024-03-25T01:48:10;1.83;;;1.73;;
18499;SDS011;9379;52.134;11.576;2024-03-25T01:50:39;3.47;;;2.70;;
18499;SDS011;9379;52.134;11.576;2024-03-25T01:53:07;2.00;;;1.90;;
18499;SDS011;9379;52.134;11.576;2024-03-25T01:55:35;2.58;;;2.47;;
18499;SDS011;9379;52.134;11.576;2024-03-25T01:58:03;5.70;;;2.65;;
18499;SDS011;9379;52.134;11.576;2024-03-25T02:00:31;2.90;;;2.70;;
18499;SDS011;9379;52.134;11.576;2024-03-25T02:02:57;2.38;;;2.17;;
18499;SDS011;9379;52.134;11.576;2024-03-25T02:05:24;2.65;;;2.45;;
18499;SDS011;9379;52.134;11.576;2024-03-25T02:07:51;2.97;;;2.78;;
18499;SDS011;9379;52.134;11.576;2024-03-25T02:10:18;3.38;;;2.60;;
18499;SDS011;9379;52.134;11.576;2024-03-25T02:12:46;2.22;;;2.08;;
18499;SDS011;9379;52.134;11.576;2024-03-25T02:15:14;5.82;;;2.25;;
18499;SDS011;9379;52.134;11.576;2024-03-25T02:17:40;3.33;;;2.33;;
18499;SDS011;9379;52.134;11.576;2024-03-25T02:20:08;3.00;;;2.80;;
18499;SDS011;9379;52.134;11.576;2024-03-25T02:22:35;4.13;;;2.35;;
18499;SDS011;9379;52.134;11.576;2024-03-25T02:25:03;2.60;;;2.50;;
18499;SDS011;9379;52.134;11.576;2024-03-25T02:27:32;2.42;;;2.33;;
18499;SDS011;9379;52.134;11.576;2024-03-25T02:30:01;6.40;;;2.35;;
18499;SDS011;9379;52.134;11.576;2024-03-25T02:32:28;2.88;;;2.67;;
18499;SDS011;9379;52.134;11.576;2024-03-25T02:34:56;2.35;;;2.15;;
18499;SDS011;9379;52.134;11.576;2024-03-25T02:37:22;3.70;;;2.00;;
18499;SDS011;9379;52.134;11.576;2024-03-25T02:39:49;4.05;;;3.75;;
18499;SDS011;9379;52.134;11.576;2024-03-25T02:42:15;9.00;;;5.10;;
18499;SDS011;9379;52.134;11.576;2024-03-25T02:44:44;12.38;;;6.45;;
18499;SDS011;9379;52.134;11.576;2024-03-25T02:47:10;5.40;;;4.93;;
18499;SDS011;9379;52.134;11.576;2024-03-25T02:49:38;4.93;;;4.25;;
18499;SDS011;9379;52.134;11.576;2024-03-25T02:52:04;3.90;;;3.60;;
18499;SDS011;9379;52.134;11.576;2024-03-25T02:54:31;5.03;;;4.35;;
18499;SDS011;9379;52.134;11.576;2024-03-25T02:56:57;3.38;;;3.17;;
18499;SDS011;9379;52.134;11.576;2024-03-25T02:59:23;5.53;;;5.10;;
18499;SDS011;9379;52.134;11.576;2024-03-25T03:01:58;6.05;;;4.70;;
18499;SDS011;9379;52.134;11.576;2024-03-25T03:04:28;6.35;;;5.85;;
18499;SDS011;9379;52.134;11.576;2024-03-25T03:06:58;16.30;;;13.75;;
18499;SDS011;9379;52.134;11.576;2024-03-25T03:09:25;9.65;;;8.60;;
18499;SDS011;9379;52.134;11.576;2024-03-25T03:11:51;5.90;;;5.20;;
18499;SDS011;9379;52.134;11.576;2024-03-25T03:14:18;4.47;;;4.05;;
18499;SDS011;9379;52.134;11.576;2024-03-25T03:16:43;4.85;;;4.45;;
18499;SDS011;9379;52.134;11.576;2024-03-25T03:19:12;4.45;;;4.05;;
18499;SDS011;9379;52.134;11.576;2024-03-25T03:21:38;3.50;;;3.20;;
18499;SDS011;9379;52.134;11.576;2024-03-25T03:24:05;4.20;;;3.78;;
18499;SDS011;9379;52.134;11.576;2024-03-25T03:26:31;3.03;;;2.80;;
18499;SDS011;9379;52.134;11.576;2024-03-25T03:28:57;3.33;;;3.08;;
18499;SDS011;9379;52.134;11.576;2024-03-25T03:31:25;3.15;;;2.78;;
18499;SDS011;9379;52.134;11.576;2024-03-25T03:33:52;3.08;;;2.92;;
18499;SDS011;9379;52.134;11.576;2024-03-25T03:36:22;3.42;;;3.22;;
18499;SDS011;9379;52.134;11.576;2024-03-25T03:38:50;3.72;;;3.30;;
18499;SDS011;9379;52.134;11.576;2024-03-25T03:41:16;3.20;;;3.00;;
18499;SDS011;9379;52.134;11.576;2024-03-25T03:43:43;3.83;;;3.58;;
18499;SDS011;9379;52.134;11.576;2024-03-25T03:46:09;3.38;;;3.17;;
18499;SDS011;9379;52.134;11.576;2024-03-25T03:48:36;10.18;;;3.63;;
18499;SDS011;9379;52.134;11.576;2024-03-25T03:51:03;3.60;;;3.38;;
18499;SDS011;9379;52.134;11.576;2024-03-25T03:53:31;3.20;;;2.90;;
18499;SDS011;9379;52.134;11.576;2024-03-25T03:55:58;2.55;;;2.45;;
18499;SDS011;9379;52.134;11.576;2024-03-25T03:58:27;2.75;;;2.63;;
18499;SDS011;9379;52.134;11.576;2024-03-25T04:00:54;3.40;;;3.10;;
18499;SDS011;9379;52.134;11.576;2024-03-25T04:03:21;2.60;;;2.40;;
18499;SDS011;9379;52.134;11.576;2024-03-25T04:05:47;2.90;;;2.80;;
18499;SDS011;9379;52.134;11.576;2024-03-25T04:08:14;2.53;;;2.40;;
18499;SDS011;9379;52.134;11.576;2024-03-25T04:10:43;2.72;;;2.42;;
18499;SDS011;9379;52.134;11.576;2024-03-25T04:13:11;2.75;;;2.55;;
18499;SDS011;9379;52.134;11.576;2024-03-25T04:15:38;3.42;;;2.88;;
18499;SDS011;9379;52.134;11.576;2024-03-25T04:18:06;3.08;;;2.88;;
18499;SDS011;9379;52.134;11.576;2024-03-25T04:20:35;3.38;;;2.92;;
18499;SDS011;9379;52.134;11.576;2024-03-25T04:23:02;2.60;;;2.50;;
18499;SDS011;9379;52.134;11.576;2024-03-25T04:25:29;5.10;;;3.63;;
18499;SDS011;9379;52.134;11.576;2024-03-25T04:27:58;3.15;;;2.95;;
18499;SDS011;9379;52.134;11.576;2024-03-25T04:30:24;2.50;;;2.40;;
18499;SDS011;9379;52.134;11.576;2024-03-25T04:32:51;2.55;;;2.45;;
18499;SDS011;9379;52.134;11.576;2024-03-25T04:35:17;3.17;;;2.90;;
18499;SDS011;9379;52.134;11.576;2024-03-25T04:37:50;2.55;;;2.45;;
18499;SDS011;9379;52.134;11.576;2024-03-25T04:40:16;3.35;;;3.05;;
18499;SDS011;9379;52.134;11.576;2024-03-25T04:42:42;3.10;;;2.90;;
18499;SDS011;9379;52.134;11.576;2024-03-25T04:45:09;4.55;;;3.33;;
18499;SDS011;9379;52.134;11.576;2024-03-25T04:47:35;4.28;;;3.17;;
18499;SDS011;9379;52.134;11.576;2024-03-25T04:50:01;3.38;;;3.17;;
18499;SDS011;9379;52.134;11.576;2024-03-25T04:52:27;4.50;;;3.30;;
18499;SDS011;9379;52.134;11.576;2024-03-25T04:54:53;3.15;;;3.00;;
18499;SDS011;9379;52.134;11.576;2024-03-25T04:57:19;4.78;;;3.20;;
18499;SDS011;9379;52.134;11.576;2024-03-25T04:59:45;3.17;;;2.97;;
18499;SDS011;9379;52.134;11.576;2024-03-25T05:02:12;3.53;;;3.33;;
18499;SDS011;9379;52.134;11.576;2024-03-25T05:04:38;2.88;;;2.67;;
18499;SDS011;9379;52.134;11.576;2024-03-25T05:07:04;3.00;;;2.80;;
18499;SDS011;9379;52.134;11.576;2024-03-25T05:09:30;3.38;;;3.17;;
18499;SDS011;9379;52.134;11.576;2024-03-25T05:11:56;3.00;;;2.45;;
18499;SDS011;9379;52.134;11.576;2024-03-25T05:14:22;8.55;;;3.10;;
18499;SDS011;9379;52.134;11.576;2024-03-25T05:16:48;3.33;;;3.13;;
18499;SDS011;9379;52.134;11.576;2024-03-25T05:19:15;2.95;;;2.80;;
18499;SDS011;9379;52.134;11.576;2024-03-25T05:21:41;2.75;;;2.60;;
18499;SDS011;9379;52.134;11.576;2024-03-25T05:24:07;3.42;;;3.17;;
18499;SDS011;9379;52.134;11.576;2024-03-25T05:26:33;4.65;;;3.50;;
18499;SDS011;9379;52.134;11.576;2024-03-25T05:28:59;4.10;;;2.88;;
18499;SDS011;9379;52.134;11.576;2024-03-25T05:31:24;4.93;;;3.47;;
18499;SDS011;9379;52.134;11.576;2024-03-25T05:33:50;2.65;;;2.47;;
18499;SDS011;9379;52.134;11.576;2024-03-25T05:36:18;2.60;;;2.50;;
18499;SDS011;9379;52.134;11.576;2024-03-25T05:38:43;3.30;;;3.10;;
18499;SDS011;9379;52.134;11.576;2024-03-25T05:41:09;4.13;;;3.85;;
18499;SDS011;9379;52.134;11.576;2024-03-25T05:43:36;2.97;;;2.88;;
18499;SDS011;9379;52.134;11.576;2024-03-25T05:46:02;3.05;;;2.85;;
18499;SDS011;9379;52.134;11.576;2024-03-25T05:48:28;4.20;;;3.15;;
18499;SDS011;9379;52.134;11.576;2024-03-25T05:50:58;2.83;;;2.65;;
18499;SDS011;9379;52.134;11.576;2024-03-25T05:53:26;3.67;;;3.33;;
18499;SDS011;9379;52.134;11.576;2024-03-25T05:55:52;4.05;;;3.53;;
18499;SDS011;9379;52.134;11.576;2024-03-25T05:58:18;3.42;;;3.00;;
18499;SDS011;9379;52.134;11.576;2024-03-25T06:00:46;3.78;;;3.47;;
18499;SDS011;9379;52.134;11.576;2024-03-25T06:03:12;4.50;;;2.88;;
18499;SDS011;9379;52.134;11.576;2024-03-25T06:05:38;3.75;;;3.45;;
18499;SDS011;9379;52.134;11.576;2024-03-25T06:08:04;3.17;;;2.97;;
18499;SDS011;9379;52.134;11.576;2024-03-25T06:10:35;2.95;;;2.65;;
18499;SDS011;9379;52.134;11.576;2024-03-25T06:13:02;3.72;;;3.53;;
18499;SDS011;9379;52.134;11.576;2024-03-25T06:15:28;3.63;;;3.42;;
18499;SDS011;9379;52.134;11.576;2024-03-25T06:17:54;3.45;;;3.30;;
18499;SDS011;9379;52.134;11.576;2024-03-25T06:20:20;4.78;;;3.95;;
18499;SDS011;9379;52.134;11.576;2024-03-25T06:22:46;8.52;;;2.97;;
18499;SDS011;9379;52.134;11.576;2024-03-25T06:25:12;3.60;;;3.30;;
18499;SDS011;9379;52.134;11.576;2024-03-25T06:27:39;3.35;;;3.08;;
18499;SDS011;9379;52.134;11.576;2024-03-25T06:30:05;4.35;;;4.00;;
18499;SDS011;9379;52.134;11.576;2024-03-25T06:32:53;4.47;;;3.03;;
18499;SDS011;9379;52.134;11.576;2024-03-25T06:35:37;5.07;;;3.47;;
18499;SDS011;9379;52.134;11.576;2024-03-25T06:38:03;3.42;;;3.13;;
18499;SDS011;9379;52.134;11.576;2024-03-25T06:40:29;4.72;;;3.92;;
18499;SDS011;9379;52.134;11.576;2024-03-25T06:42:56;3.20;;;3.00;;
18499;SDS011;9379;52.134;11.576;2024-03-25T06:45:22;3.30;;;3.13;;
18499;SDS011;9379;52.134;11.576;2024-03-25T06:47:48;2.75;;;2.65;;
18499;SDS011;9379;52.134;11.576;2024-03-25T06:50:14;3.90;;;3.13;;
18499;SDS011;9379;52.134;11.576;2024-03-25T06:52:40;3.75;;;3.33;;
18499;SDS011;9379;52.134;11.576;2024-03-25T06:55:06;3.85;;;3.55;;
18499;SDS011;9379;52.134;11.576;2024-03-25T06:57:32;3.60;;;3.30;;
18499;SDS011;9379;52.134;11.576;2024-03-25T07:00:00;4.30;;;4.00;;
18499;SDS011;9379;52.134;11.576;2024-03-25T07:02:26;2.90;;;2.70;;
18499;SDS011;9379;52.134;11.576;2024-03-25T07:04:52;8.77;;;2.90;;
18499;SDS011;9379;52.134;11.576;2024-03-25T07:07:17;3.45;;;3.22;;
18499;SDS011;9379;52.134;11.576;2024-03-25T07:09:43;3.05;;;2.90;;
18499;SDS011;9379;52.134;11.576;2024-03-25T07:12:09;4.32;;;3.42;;
18499;SDS011;9379;52.134;11.576;2024-03-25T07:14:35;3.58;;;3.28;;
18499;SDS011;9379;52.134;11.576;2024-03-25T07:17:02;3.28;;;2.78;;
18499;SDS011;9379;52.134;11.576;2024-03-25T07:19:28;5.55;;;3.58;;
18499;SDS011;9379;52.134;11.576;2024-03-25T07:21:54;3.50;;;3.30;;
18499;SDS011;9379;52.134;11.576;2024-03-25T07:24:20;2.88;;;2.75;;
18499;SDS011;9379;52.134;11.576;2024-03-25T07:26:46;3.10;;;2.80;;
18499;SDS011;9379;52.134;11.576;2024-03-25T07:29:12;3.88;;;3.58;;
18499;SDS011;9379;52.134;11.576;2024-03-25T07:31:38;2.90;;;2.75;;
18499;SDS011;9379;52.134;11.576;2024-03-25T07:34:05;3.55;;;3.25;;
18499;SDS011;9379;52.134;11.576;2024-03-25T07:36:31;3.17;;;2.97;;
18499;SDS011;9379;52.134;11.576;2024-03-25T07:38:57;5.75;;;3.75;;
18499;SDS011;9379;52.134;11.576;2024-03-25T07:41:22;4.05;;;3.80;;
18499;SDS011;9379;52.134;11.576;2024-03-25T07:43:48;5.85;;;5.25;;
18499;SDS011;9379;52.134;11.576;2024-03-25T07:46:14;8.05;;;3.05;;
18499;SDS011;9379;52.134;11.576;2024-03-25T07:48:40;4.28;;;3.17;;
18499;SDS011;9379;52.134;11.576;2024-03-25T07:51:07;4.75;;;2.45;;
18499;SDS011;9379;52.134;11.576;2024-03-25T07:53:33;2.60;;;2.38;;
18499;SDS011;9379;52.134;11.576;2024-03-25T07:55:59;4.60;;;3.60;;
18499;SDS011;9379;52.134;11.576;2024-03-25T07:58:25;5.30;;;2.53;;
18499;SDS011;9379;52.134;11.576;2024-03-25T08:00:51;2.67;;;2.47;;
18499;SDS011;9379;52.134;11.576;2024-03-25T08:03:17;4.50;;;2.42;;
18499;SDS011;9379;52.134;11.576;2024-03-25T08:05:42;3.08;;;2.88;;
18499;SDS011;9379;52.134;11.576;2024-03-25T08:08:10;2.70;;;2.60;;
18499;SDS011;9379;52.134;11.576;2024-03-25T08:10:36;2.95;;;2.65;;
18499;SDS011;9379;52.134;11.576;2024-03-25T08:13:03;4.10;;;3.53;;
18499;SDS011;9379;52.134;11.576;2024-03-25T08:15:29;5.30;;;2.95;;
18499;SDS011;9379;52.134;11.576;2024-03-25T08:17:55;2.88;;;2.72;;
18499;SDS011;9379;52.134;11.576;2024-03-25T08:20:21;2.83;;;2.72;;
18499;SDS011;9379;52.134;11.576;2024-03-25T08:22:48;3.50;;;3.20;;
18499;SDS011;9379;52.134;11.576;2024-03-25T08:25:15;3.95;;;3.58;;
18499;SDS011;9379;52.134;11.576;2024-03-25T08:27:41;3.22;;;3.00;;
18499;SDS011;9379;52.134;11.576;2024-03-25T08:30:07;3.17;;;2.97;;
18499;SDS011;9379;52.134;11.576;2024-03-25T08:32:34;2.80;;;2.53;;
18499;SDS011;9379;52.134;11.576;2024-03-25T08:35:00;3.25;;;3.03;;
18499;SDS011;9379;52.134;11.576;2024-03-25T08:37:26;3.63;;;3.33;;
18499;SDS011;9379;52.134;11.576;2024-03-25T08:39:54;3.55;;;3.25;;
18499;SDS011;9379;52.134;11.576;2024-03-25T08:42:21;3.42;;;3.22;;
18499;SDS011;9379;52.134;11.576;2024-03-25T08:44:47;4.20;;;3.20;;
18499;SDS011;9379;52.134;11.576;2024-03-25T08:47:13;4.00;;;2.85;;
18499;SDS011;9379;52.134;11.576;2024-03-25T08:49:38;3.20;;;2.90;;
18499;SDS011;9379;52.134;11.576;2024-03-25T08:52:04;3.45;;;2.35;;
18499;SDS011;9379;52.134;11.576;2024-03-25T08:54:31;4.28;;;3.05;;
18499;SDS011;9379;52.134;11.576;2024-03-25T08:56:56;3.45;;;3.20;;
18499;SDS011;9379;52.134;11.576;2024-03-25T08:59:24;5.13;;;3.42;;
18499;SDS011;9379;52.134;11.576;2024-03-25T09:01:49;11.48;;;4.15;;
18499;SDS011;9379;52.134;11.576;2024-03-25T09:04:15;3.30;;;3.10;;
18499;SDS011;9379;52.134;11.576;2024-03-25T09:06:41;2.97;;;2.67;;
18499;SDS011;9379;52.134;11.576;2024-03-25T09:09:07;3.60;;;3.28;;
18499;SDS011;9379;52.134;11.576;2024-03-25T09:11:51;2.50;;;2.40;;
18499;SDS011;9379;52.134;11.576;2024-03-25T09:14:17;2.70;;;2.60;;
18499;SDS011;9379;52.134;11.576;2024-03-25T09:16:44;3.00;;;2.80;;
18499;SDS011;9379;52.134;11.576;2024-03-25T09:19:10;4.15;;;2.95;;
18499;SDS011;9379;52.134;11.576;2024-03-25T09:21:36;6.13;;;2.53;;
18499;SDS011;9379;52.134;11.576;2024-03-25T09:24:02;2.10;;;2.00;;
18499;SDS011;9379;52.134;11.576;2024-03-25T09:26:28;2.83;;;2.63;;
18499;SDS011;9379;52.134;11.576;2024-03-25T09:28:54;2.33;;;2.22;;
18499;SDS011;9379;52.134;11.576;2024-03-25T09:31:20;2.78;;;2.08;;
18499;SDS011;9379;52.134;11.576;2024-03-25T09:33:47;2.30;;;2.20;;
18499;SDS011;9379;52.134;11.576;2024-03-25T09:36:13;2.95;;;2.75;;
18499;SDS011;9379;52.134;11.576;2024-03-25T09:38:39;2.88;;;2.70;;
18499;SDS011;9379;52.134;11.576;2024-03-25T09:41:04;7.55;;;3.80;;
18499;SDS011;9379;52.134;11.576;2024-03-25T09:43:35;8.32;;;3.95;;
18499;SDS011;9379;52.134;11.576;2024-03-25T09:46:08;3.60;;;3.35;;
18499;SDS011;9379;52.134;11.576;2024-03-25T09:48:34;4.60;;;3.35;;
18499;SDS011;9379;52.134;11.576;2024-03-25T09:51:03;3.50;;;3.25;;
18499;SDS011;9379;52.134;11.576;2024-03-25T09:53:29;2.25;;;2.15;;
18499;SDS011;9379;52.134;11.576;2024-03-25T09:55:55;3.58;;;3.28;;
18499;SDS011;9379;52.134;11.576;2024-03-25T09:58:22;2.63;;;2.50;;
18499;SDS011;9379;52.134;11.576;2024-03-25T10:00:50;2.83;;;2.58;;
18499;SDS011;9379;52.134;11.576;2024-03-25T10:03:16;2.95;;;2.70;;
18499;SDS011;9379;52.134;11.576;2024-03-25T10:05:42;4.53;;;2.78;;
18499;SDS011;9379;52.134;11.576;2024-03-25T10:08:10;3.03;;;2.85;;
18499;SDS011;9379;52.134;11.576;2024-03-25T10:10:36;4.13;;;2.25;;
18499;SDS011;9379;52.134;11.576;2024-03-25T10:13:02;3.95;;;3.65;;
18499;SDS011;9379;52.134;11.576;2024-03-25T10:15:28;6.57;;;4.93;;
18499;SDS011;9379;52.134;11.576;2024-03-25T10:17:54;11.45;;;3.22;;
18499;SDS011;9379;52.134;11.576;2024-03-25T10:20:21;2.75;;;2.55;;
18499;SDS011;9379;52.134;11.576;2024-03-25T10:22:47;3.33;;;3.13;;
18499;SDS011;9379;52.134;11.576;2024-03-25T10:25:21;2.75;;;2.60;;
18499;SDS011;9379;52.134;11.576;2024-03-25T10:27:54;2.30;;;2.20;;
18499;SDS011;9379;52.134;11.576;2024-03-25T10:30:21;7.88;;;3.75;;
18499;SDS011;9379;52.134;11.576;2024-03-25T10:32:56;3.40;;;2.40;;
18499;SDS011;9379;52.134;11.576;2024-03-25T10:35:23;4.13;;;2.42;;
18499;SDS011;9379;52.134;11.576;2024-03-25T10:37:51;3.70;;;3.40;;
18499;SDS011;9379;52.134;11.576;2024-03-25T10:40:22;3.05;;;2.85;;
18499;SDS011;9379;52.134;11.576;2024-03-25T10:42:52;3.95;;;3.20;;
18499;SDS011;9379;52.134;11.576;2024-03-25T10:45:19;2.47;;;2.10;;
18499;SDS011;9379;52.134;11.576;2024-03-25T10:47:46;4.88;;;3.33;;
18499;SDS011;9379;52.134;11.576;2024-03-25T10:50:12;4.07;;;3.45;;
18499;SDS011;9379;52.134;11.576;2024-03-25T10:52:45;4.55;;;2.88;;
18499;SDS011;9379;52.134;11.576;2024-03-25T10:55:11;2.90;;;2.65;;
18499;SDS011;9379;52.134;11.576;2024-03-25T10:57:39;3.85;;;3.63;;
18499;SDS011;9379;52.134;11.576;2024-03-25T11:00:06;2.95;;;2.38;;
18499;SDS011;9379;52.134;11.576;2024-03-25T11:02:33;2.42;;;2.17;;
18499;SDS011;9379;52.134;11.576;2024-03-25T11:04:59;7.88;;;3.83;;
18499;SDS011;9379;52.134;11.576;2024-03-25T11:07:30;2.47;;;2.28;;
18499;SDS011;9379;52.134;11.576;2024-03-25T11:10:02;3.45;;;2.60;;
18499;SDS011;9379;52.134;11.576;2024-03-25T11:12:31;3.88;;;3.50;;
18499;SDS011;9379;52.134;11.576;2024-03-25T11:15:00;6.43;;;2.92;;
18499;SDS011;9379;52.134;11.576;2024-03-25T11:17:26;4.63;;;2.10;;
18499;SDS011;9379;52.134;11.576;2024-03-25T11:19:52;5.68;;;2.72;;
18499;SDS011;9379;52.134;11.576;2024-03-25T11:22:23;3.50;;;3.22;;
18499;SDS011;9379;52.134;11.576;2024-03-25T11:24:50;1.90;;;1.80;;
18499;SDS011;9379;52.134;11.576;2024-03-25T11:27:21;6.53;;;2.63;;
18499;SDS011;9379;52.134;11.576;2024-03-25T11:29:47;2.58;;;2.38;;
18499;SDS011;9379;52.134;11.576;2024-03-25T11:32:15;2.35;;;2.25;;
18499;SDS011;9379;52.134;11.576;2024-03-25T11:34:49;4.35;;;2.55;;
18499;SDS011;9379;52.134;11.576;2024-03-25T11:37:15;3.83;;;2.67;;
18499;SDS011;9379;52.134;11.576;2024-03-25T11:39:41;2.50;;;2.35;;
18499;SDS011;9379;52.134;11.576;2024-03-25T11:42:07;2.03;;;1.92;;
18499;SDS011;9379;52.134;11.576;2024-03-25T11:44:35;2.92;;;2.67;;
18499;SDS011;9379;52.134;11.576;2024-03-25T11:47:03;1.83;;;1.73;;
18499;SDS011;9379;52.134;11.576;2024-03-25T11:49:31;3.33;;;2.58;;
18499;SDS011;9379;52.134;11.576;2024-03-25T11:51:58;2.78;;;2.58;;
18499;SDS011;9379;52.134;11.576;2024-03-25T11:54:26;2.95;;;2.60;;
18499;SDS011;9379;52.134;11.576;2024-03-25T11:56:53;2.60;;;2.35;;
18499;SDS011;9379;52.134;11.576;2024-03-25T11:59:19;2.53;;;2.30;;
18499;SDS011;9379;52.134;11.576;2024-03-25T12:01:45;2.92;;;2.72;;
18499;SDS011;9379;52.134;11.576;2024-03-25T12:04:11;6.80;;;3.05;;
18499;SDS011;9379;52.134;11.576;2024-03-25T12:06:39;2.90;;;2.65;;
18499;SDS011;9379;52.134;11.576;2024-03-25T12:09:05;5.25;;;3.92;;
18499;SDS011;9379;52.134;11.576;2024-03-25T12:11:49;4.28;;;2.72;;
18499;SDS011;9379;52.134;11.576;2024-03-25T12:14:16;3.42;;;3.13;;
18499;SDS011;9379;52.134;11.576;2024-03-25T12:16:42;2.53;;;2.33;;
18499;SDS011;9379;52.134;11.576;2024-03-25T12:19:08;3.00;;;2.20;;
18499;SDS011;9379;52.134;11.576;2024-03-25T12:21:34;2.90;;;2.70;;
18499;SDS011;9379;52.134;11.576;2024-03-25T12:24:01;3.33;;;2.28;;
18499;SDS011;9379;52.134;11.576;2024-03-25T12:26:27;3.20;;;2.42;;
18499;SDS011;9379;52.134;11.576;2024-03-25T12:28:53;3.35;;;2.75;;
18499;SDS011;9379;52.134;11.576;2024-03-25T12:31:19;5.07;;;2.50;;
18499;SDS011;9379;52.134;11.576;2024-03-25T12:33:48;3.28;;;3.05;;
18499;SDS011;9379;52.134;11.576;2024-03-25T12:36:14;4.75;;;2.13;;
18499;SDS011;9379;52.134;11.576;2024-03-25T12:38:40;2.15;;;1.95;;
18499;SDS011;9379;52.134;11.576;2024-03-25T12:41:11;3.85;;;2.13;;
18499;SDS011;9379;52.134;11.576;2024-03-25T12:43:41;7.15;;;3.38;;
18499;SDS011;9379;52.134;11.576;2024-03-25T12:46:08;4.10;;;2.30;;
18499;SDS011;9379;52.134;11.576;2024-03-25T12:48:34;3.72;;;3.33;;
18499;SDS011;9379;52.134;11.576;2024-03-25T12:51:00;3.10;;;2.72;;
18499;SDS011;9379;52.134;11.576;2024-03-25T12:53:26;2.05;;;1.95;;
18499;SDS011;9379;52.134;11.576;2024-03-25T12:55:52;4.63;;;2.65;;
18499;SDS011;9379;52.134;11.576;2024-03-25T12:58:19;4.20;;;2.63;;
18499;SDS011;9379;52.134;11.576;2024-03-25T13:00:45;3.08;;;2.58;;
18499;SDS011;9379;52.134;11.576;2024-03-25T13:03:11;3.05;;;2.60;;
18499;SDS011;9379;52.134;11.576;2024-03-25T13:05:38;8.73;;;2.80;;
18499;SDS011;9379;52.134;11.576;2024-03-25T13:08:04;2.85;;;2.58;;
18499;SDS011;9379;52.134;11.576;2024-03-25T13:10:30;2.38;;;2.17;;
18499;SDS011;9379;52.134;11.576;2024-03-25T13:12:56;2.45;;;2.25;;
18499;SDS011;9379;52.134;11.576;2024-03-25T13:24:54;1.98;;;1.88;;
18499;SDS011;9379;52.134;11.576;2024-03-25T13:27:20;4.72;;;2.35;;
18499;SDS011;9379;52.134;11.576;2024-03-25T13:29:46;3.28;;;3.00;;
18499;SDS011;9379;52.134;11.576;2024-03-25T13:32:11;7.03;;;3.10;;
18499;SDS011;9379;52.134;11.576;2024-03-25T13:34:37;2.30;;;2.20;;
18499;SDS011;9379;52.134;11.576;2024-03-25T13:37:03;2.80;;;2.05;;
18499;SDS011;9379;52.134;11.576;2024-03-25T13:39:31;3.80;;;2.53;;
18499;SDS011;9379;52.134;11.576;2024-03-25T13:41:57;2.75;;;2.55;;
18499;SDS011;9379;52.134;11.576;2024-03-25T13:44:22;8.70;;;3.22;;
18499;SDS011;9379;52.134;11.576;2024-03-25T13:46:48;3.15;;;2.83;;
18499;SDS011;9379;52.134;11.576;2024-03-25T13:49:14;8.27;;;3.63;;
18499;SDS011;9379;52.134;11.576;2024-03-25T13:51:45;2.83;;;2.58;;
18499;SDS011;9379;52.134;11.576;2024-03-25T13:54:11;3.38;;;2.47;;
18499;SDS011;9379;52.134;11.576;2024-03-25T13:56:38;3.05;;;2.83;;
18499;SDS011;9379;52.134;11.576;2024-03-25T13:59:05;2.50;;;2.30;;
18499;SDS011;9379;52.134;11.576;2024-03-25T14:01:31;2.65;;;2.55;;
18499;SDS011;9379;52.134;11.576;2024-03-25T14:03:56;3.00;;;2.80;;
18499;SDS011;9379;52.134;11.576;2024-03-25T14:06:22;2.92;;;2.70;;
18499;SDS011;9379;52.134;11.576;2024-03-25T14:08:48;2.30;;;2.20;;
18499;SDS011;9379;52.134;11.576;2024-03-25T14:11:14;2.40;;;2.30;;
18499;SDS011;9379;52.134;11.576;2024-03-25T14:13:41;2.53;;;2.33;;
18499;SDS011;9379;52.134;11.576;2024-03-25T14:16:07;4.15;;;1.90;;
18499;SDS011;9379;52.134;11.576;2024-03-25T14:18:33;2.85;;;2.70;;
18499;SDS011;9379;52.134;11.576;2024-03-25T14:20:59;4.00;;;2.55;;
18499;SDS011;9379;52.134;11.576;2024-03-25T14:23:25;2.80;;;2.65;;
18499;SDS011;9379;52.134;11.576;2024-03-25T14:25:51;4.30;;;2.08;;
18499;SDS011;9379;52.134;11.576;2024-03-25T14:28:16;2.90;;;1.85;;
18499;SDS011;9379;52.134;11.576;2024-03-25T14:30:44;3.13;;;2.63;;
18499;SDS011;9379;52.134;11.576;2024-03-25T14:33:10;1.98;;;1.80;;
18499;SDS011;9379;52.134;11.576;2024-03-25T14:35:36;3.15;;;1.95;;
18499;SDS011;9379;52.134;11.576;2024-03-25T14:38:01;4.20;;;1.98;;
18499;SDS011;9379;52.134;11.576;2024-03-25T14:40:27;1.73;;;1.67;;
18499;SDS011;9379;52.134;11.576;2024-03-25T14:42:53;2.83;;;1.88;;
18499;SDS011;9379;52.134;11.576;2024-03-25T14:45:19;5.85;;;2.65;;
18499;SDS011;9379;52.134;11.576;2024-03-25T14:47:46;6.22;;;3.90;;
18499;SDS011;9379;52.134;11.576;2024-03-25T14:50:13;5.35;;;3.63;;
18499;SDS011;9379;52.134;11.576;2024-03-25T14:52:39;7.28;;;3.58;;
18499;SDS011;9379;52.134;11.576;2024-03-25T14:55:05;11.57;;;3.95;;